createdAt,value
2022-12-08T00:01:39.545Z,100231.16
2022-12-08T00:04:07.634Z,100235.61
2022-12-08T00:06:40.728Z,100237.70
2022-12-08T00:09:36.400Z,100233.90
2022-12-08T00:12:11.034Z,100229.08
2022-12-08T00:14:43.928Z,100232.33
2022-12-08T00:17:13.415Z,100230.83
2022-12-08T00:19:42.348Z,100224.31
2022-12-08T00:22:11.964Z,100225.84
2022-12-08T00:24:40.966Z,100230.46
2022-12-08T00:27:11.110Z,100226.11
2022-12-08T00:29:38.761Z,100230.41
2022-12-08T00:32:06.647Z,100231.58
2022-12-08T00:34:34.531Z,100235.23
2022-12-08T00:37:02.241Z,100234.55
2022-12-08T00:39:29.873Z,100235.26
2022-12-08T00:41:57.447Z,100236.66
2022-12-08T00:44:25.137Z,100233.59
2022-12-08T00:46:52.814Z,100235.35
2022-12-08T00:49:21.225Z,100232.67
2022-12-08T00:51:49.197Z,100232.77
2022-12-08T00:54:17.604Z,100237.02
2022-12-08T00:56:45.382Z,100238.30
2022-12-08T00:59:13.080Z,100237.17
2022-12-08T01:01:41.214Z,100234.66
2022-12-08T01:04:12.734Z,100237.49
2022-12-08T01:06:40.336Z,100235.36
2022-12-08T01:09:08.904Z,100235.05
2022-12-08T01:11:36.791Z,100241.86
2022-12-08T01:14:04.530Z,100236.20
2022-12-08T01:16:35.238Z,100239.31
2022-12-08T01:19:03.664Z,100238.41
2022-12-08T01:21:31.275Z,100233.77
2022-12-08T01:24:01.890Z,100232.49
2022-12-08T01:26:29.503Z,100228.21
2022-12-08T01:28:57.075Z,100227.83
2022-12-08T01:31:24.713Z,100230.06
2022-12-08T01:33:52.749Z,100236.11
2022-12-08T01:36:25.964Z,100233.05
2022-12-08T01:38:54.843Z,100226.11
2022-12-08T01:41:25.174Z,100226.40
2022-12-08T01:44:04.081Z,100227.48
2022-12-08T01:46:34.039Z,100222.05
2022-12-08T01:49:11.506Z,100219.67
2022-12-08T01:51:46.860Z,100221.84
2022-12-08T01:54:15.487Z,100220.27
2022-12-08T01:56:52.582Z,100221.66
2022-12-08T01:59:20.291Z,100219.86
2022-12-08T02:01:48.036Z,100212.97
2022-12-08T02:04:15.715Z,100216.42
2022-12-08T02:06:46.702Z,100210.67
2022-12-08T02:09:14.570Z,100208.88
2022-12-08T02:11:42.146Z,100208.46
2022-12-08T02:14:13.633Z,100201.19
2022-12-08T02:16:50.451Z,100195.48
2022-12-08T02:19:49.475Z,100201.59
2022-12-08T02:22:26.366Z,100206.91
2022-12-08T02:25:02.093Z,100202.77
2022-12-08T02:27:48.297Z,100207.25
2022-12-08T02:30:19.835Z,100204.32
2022-12-08T02:33:18.429Z,100205.45
2022-12-08T02:36:00.301Z,100203.89
2022-12-08T02:39:00.086Z,100202.12
2022-12-08T02:41:37.333Z,100190.95
2022-12-08T02:44:20.044Z,100188.84
2022-12-08T02:46:54.065Z,100182.97
2022-12-08T02:49:21.721Z,100183.15
2022-12-08T02:51:49.404Z,100182.34
2022-12-08T02:54:17.225Z,100182.50
2022-12-08T02:57:30.145Z,100176.83
2022-12-08T03:00:08.883Z,100167.96
2022-12-08T03:02:56.384Z,100168.20
2022-12-08T03:05:45.449Z,100171.02
2022-12-08T03:08:13.171Z,100175.39
2022-12-08T03:10:43.051Z,100175.45
2022-12-08T03:13:20.651Z,100178.11
2022-12-08T03:15:51.110Z,100176.06
2022-12-08T03:18:24.070Z,100177.37
2022-12-08T03:20:52.123Z,100172.50
2022-12-08T03:23:21.215Z,100182.23
2022-12-08T03:25:56.894Z,100183.77
2022-12-08T03:28:25.273Z,100183.50
2022-12-08T03:30:57.118Z,100185.17
2022-12-08T03:33:30.472Z,100184.88
2022-12-08T03:36:01.666Z,100183.54
2022-12-08T03:38:40.481Z,100179.65
2022-12-08T03:41:08.115Z,100179.05
2022-12-08T03:43:36.060Z,100175.38
2022-12-08T03:46:03.733Z,100177.13
2022-12-08T03:48:31.368Z,100168.89
2022-12-08T03:50:58.920Z,100166.33
2022-12-08T03:53:26.523Z,100173.77
2022-12-08T03:55:54.553Z,100165.38
2022-12-08T03:58:22.162Z,100167.07
2022-12-08T04:00:49.789Z,100167.88
2022-12-08T04:03:17.447Z,100166.98
2022-12-08T04:05:45.114Z,100166.77
2022-12-08T04:08:12.740Z,100165.65
2022-12-08T04:10:40.340Z,100167.65
2022-12-08T04:13:07.933Z,100162.96
2022-12-08T04:15:35.550Z,100160.55
2022-12-08T04:18:03.334Z,100153.47
2022-12-08T04:20:30.904Z,100145.45
2022-12-08T04:22:58.473Z,100147.21
2022-12-08T04:25:26.184Z,100146.65
2022-12-08T04:27:53.748Z,100144.36
2022-12-08T04:30:23.184Z,100148.42
2022-12-08T04:32:50.773Z,100147.91
2022-12-08T04:35:18.475Z,100150.37
2022-12-08T04:37:46.083Z,100148.35
2022-12-08T04:40:14.535Z,100151.84
2022-12-08T04:42:42.178Z,100149.44
2022-12-08T04:45:10.200Z,100147.47
2022-12-08T04:47:37.868Z,100144.80
2022-12-08T04:50:06.608Z,100145.90
2022-12-08T04:52:34.477Z,100138.56
2022-12-08T04:55:02.670Z,100144.34
2022-12-08T04:57:30.359Z,100148.07
2022-12-08T04:59:58.034Z,100147.95
2022-12-08T05:02:26.044Z,100145.88
2022-12-08T05:04:53.726Z,100142.90
2022-12-08T05:07:21.393Z,100148.63
2022-12-08T05:09:49.005Z,100152.67
2022-12-08T05:12:16.763Z,100145.11
2022-12-08T05:14:44.414Z,100149.50
2022-12-08T05:17:11.993Z,100147.64
2022-12-08T05:19:39.900Z,100151.09
2022-12-08T05:22:07.506Z,100149.55
2022-12-08T05:24:35.127Z,100153.66
2022-12-08T05:27:03.056Z,100152.07
2022-12-08T05:29:30.662Z,100149.13
2022-12-08T05:31:58.385Z,100146.09
2022-12-08T05:34:26.163Z,100138.92
2022-12-08T05:36:53.887Z,100134.98
2022-12-08T05:39:21.463Z,100134.81
2022-12-08T05:41:49.039Z,100131.60
2022-12-08T05:44:16.661Z,100129.25
2022-12-08T05:46:44.333Z,100120.84
2022-12-08T05:49:11.925Z,100123.83
2022-12-08T05:51:39.673Z,100119.91
2022-12-08T05:54:07.270Z,100121.46
2022-12-08T05:56:34.944Z,100123.35
2022-12-08T05:59:06.069Z,100134.54
2022-12-08T06:01:34.103Z,100140.05
2022-12-08T06:04:03.234Z,100134.20
2022-12-08T06:06:36.236Z,100141.13
2022-12-08T06:09:05.477Z,100137.34
2022-12-08T06:11:33.582Z,100143.16
2022-12-08T06:14:01.812Z,100145.17
2022-12-08T06:16:30.243Z,100140.31
2022-12-08T06:18:58.418Z,100140.67
2022-12-08T06:21:26.161Z,100146.42
2022-12-08T06:23:54.600Z,100145.09
2022-12-08T06:26:23.151Z,100149.68
2022-12-08T06:28:51.084Z,100152.55
2022-12-08T06:31:24.586Z,100146.49
2022-12-08T06:33:53.686Z,100147.17
2022-12-08T06:36:24.274Z,100141.73
2022-12-08T06:38:51.993Z,100143.96
2022-12-08T06:41:19.654Z,100152.70
2022-12-08T06:43:47.420Z,100148.34
2022-12-08T06:46:17.958Z,100150.87
2022-12-08T06:48:45.935Z,100147.12
2022-12-08T06:51:19.768Z,100146.98
2022-12-08T06:53:50.506Z,100142.50
2022-12-08T06:56:18.215Z,100143.20
2022-12-08T06:58:50.557Z,100147.56
2022-12-08T07:01:20.081Z,100151.89
2022-12-08T07:03:48.032Z,100150.11
2022-12-08T07:06:19.277Z,100148.21
2022-12-08T07:08:47.131Z,100149.19
2022-12-08T07:11:20.986Z,100151.02
2022-12-08T07:13:49.870Z,100147.70
2022-12-08T07:16:17.563Z,100151.30
2022-12-08T07:18:45.183Z,100153.58
2022-12-08T07:21:14.068Z,100150.55
2022-12-08T07:23:42.358Z,100152.45
2022-12-08T07:26:12.329Z,100156.52
2022-12-08T07:28:41.503Z,100156.73
2022-12-08T07:31:21.535Z,100157.94
2022-12-08T07:33:49.827Z,100155.51
2022-12-08T07:36:17.600Z,100155.63
2022-12-08T07:38:45.496Z,100152.86
2022-12-08T07:41:17.878Z,100152.48
2022-12-08T07:43:45.632Z,100148.30
2022-12-08T07:46:19.307Z,100149.96
2022-12-08T07:48:47.798Z,100150.26
2022-12-08T07:51:16.547Z,100151.25
2022-12-08T07:53:51.565Z,100147.96
2022-12-08T07:56:21.926Z,100147.15
2022-12-08T07:58:50.010Z,100150.35
2022-12-08T08:01:29.524Z,100144.08
2022-12-08T08:03:59.307Z,100140.36
2022-12-08T08:06:27.465Z,100136.88
2022-12-08T08:08:55.184Z,100134.84
2022-12-08T08:11:23.903Z,100134.48
2022-12-08T08:13:51.893Z,100137.33
2022-12-08T08:16:20.413Z,100138.65
2022-12-08T08:18:50.124Z,100142.56
2022-12-08T08:24:07.344Z,100133.13
2022-12-08T08:26:36.670Z,100125.89
2022-12-08T08:29:04.291Z,100128.77
2022-12-08T08:31:31.890Z,100126.79
2022-12-08T08:33:59.528Z,100126.39
2022-12-08T08:36:27.100Z,100123.48
2022-12-08T08:38:54.765Z,100122.92
2022-12-08T08:41:22.349Z,100122.14
2022-12-08T08:43:49.908Z,100123.23
2022-12-08T08:46:17.534Z,100115.20
2022-12-08T08:48:45.310Z,100118.83
2022-12-08T08:51:14.258Z,100120.65
2022-12-08T08:53:42.526Z,100116.00
2022-12-08T08:56:19.108Z,100119.09
2022-12-08T08:58:50.724Z,100111.93
2022-12-08T09:01:19.352Z,100116.02
2022-12-08T09:03:48.010Z,100121.69
2022-12-08T09:06:16.739Z,100123.48
2022-12-08T09:08:45.284Z,100117.45
2022-12-08T09:11:13.499Z,100111.11
2022-12-08T09:13:41.609Z,100101.11
2022-12-08T09:16:11.455Z,100093.73
2022-12-08T09:18:39.110Z,100091.55
2022-12-08T09:21:13.714Z,100099.27
2022-12-08T09:23:41.298Z,100109.29
2022-12-08T09:26:09.475Z,100111.14
2022-12-08T09:28:37.604Z,100102.62
2022-12-08T09:31:05.415Z,100084.00
2022-12-08T09:33:33.022Z,100072.51
2022-12-08T09:36:04.696Z,100068.34
2022-12-08T09:38:32.619Z,100086.05
2022-12-08T09:41:02.835Z,100104.23
2022-12-08T09:43:48.692Z,100102.80
2022-12-08T09:46:17.001Z,100098.79
2022-12-08T09:48:51.309Z,100088.80
2022-12-08T09:51:19.068Z,100088.13
2022-12-08T09:53:52.572Z,100082.42
2022-12-08T09:56:26.751Z,100081.18
2022-12-08T09:59:03.628Z,100071.15
2022-12-08T10:01:33.575Z,100062.32
2022-12-08T10:04:01.953Z,100053.70
2022-12-08T10:07:11.237Z,100066.82
2022-12-08T10:09:45.655Z,100077.08
2022-12-08T10:12:26.118Z,100070.55
2022-12-08T10:14:56.769Z,100057.58
2022-12-08T10:17:48.097Z,100055.52
2022-12-08T10:20:19.718Z,100068.49
2022-12-08T10:22:57.577Z,100067.33
2022-12-08T10:25:46.916Z,100064.17
2022-12-08T10:28:15.262Z,100064.96
2022-12-08T10:30:43.262Z,100060.77
2022-12-08T10:33:21.762Z,100061.30
2022-12-08T10:35:54.556Z,100053.88
2022-12-08T10:38:26.881Z,100049.02
2022-12-08T10:41:03.652Z,100051.47
2022-12-08T10:43:32.824Z,100039.22
2022-12-08T10:46:21.782Z,100033.47
2022-12-08T10:49:10.820Z,100029.26
2022-12-08T10:51:41.212Z,100020.29
2022-12-08T10:54:35.775Z,100012.83
2022-12-08T10:57:03.558Z,100012.02
2022-12-08T10:59:33.959Z,100015.32
2022-12-08T11:02:01.705Z,100004.22
2022-12-08T11:04:36.353Z,100000.25
2022-12-08T11:07:06.660Z,100000.04
2022-12-08T11:09:47.315Z,100001.91
2022-12-08T11:12:16.140Z,100007.09
2022-12-08T11:14:43.664Z,99997.63
2022-12-08T11:17:23.581Z,99994.24
2022-12-08T11:20:09.734Z,99986.86
2022-12-08T11:22:43.157Z,99978.27
2022-12-08T11:25:25.483Z,99975.95
2022-12-08T11:28:02.352Z,99962.93
2022-12-08T11:30:44.711Z,99950.54
2022-12-08T11:33:16.153Z,99954.44
2022-12-08T11:36:13.378Z,99955.94
2022-12-08T11:38:44.348Z,99937.13
2022-12-08T11:41:17.067Z,99930.84
2022-12-08T11:43:58.481Z,99917.23
2022-12-08T11:46:34.836Z,99911.63
2022-12-08T11:49:09.342Z,99905.55
2022-12-08T11:51:45.892Z,99905.58
2022-12-08T11:54:26.191Z,99903.83
2022-12-08T11:56:59.454Z,99900.82
2022-12-08T11:59:57.230Z,99892.15
2022-12-08T12:02:31.140Z,99880.50
2022-12-08T12:05:08.264Z,99876.01
2022-12-08T12:08:02.540Z,99885.03
2022-12-08T12:10:30.223Z,99892.13
2022-12-08T12:13:35.980Z,99893.33
2022-12-08T12:16:25.486Z,99889.00
2022-12-08T12:19:10.016Z,99894.94
2022-12-08T12:21:52.629Z,99899.86
2022-12-08T12:24:30.483Z,99900.39
2022-12-08T12:27:07.126Z,99903.05
2022-12-08T12:29:38.238Z,99908.13
2022-12-08T12:32:09.039Z,99904.33
2022-12-08T12:34:46.871Z,99898.41
2022-12-08T12:37:18.572Z,99896.67
2022-12-08T12:39:52.153Z,99900.77
2022-12-08T12:43:01.567Z,99904.05
2022-12-08T12:45:33.140Z,99906.82
2022-12-08T12:48:00.935Z,99901.25
2022-12-08T12:50:34.779Z,99899.55
2022-12-08T12:53:17.568Z,99898.02
2022-12-08T12:55:56.944Z,99889.59
2022-12-08T12:58:27.542Z,99888.45
2022-12-08T13:01:10.301Z,99887.83
2022-12-08T13:03:50.466Z,99883.55
2022-12-08T13:06:35.614Z,99876.13
2022-12-08T13:09:04.221Z,99866.27
2022-12-08T13:11:48.076Z,99868.48
2022-12-08T13:14:34.626Z,99866.75
2022-12-08T13:17:07.790Z,99863.78
2022-12-08T13:19:38.736Z,99864.46
2022-12-08T13:22:43.975Z,99864.95
2022-12-08T13:25:39.357Z,99862.66
2022-12-08T13:28:16.110Z,99863.65
2022-12-08T13:30:53.620Z,99862.39
2022-12-08T13:33:50.905Z,99862.02
2022-12-08T13:36:28.878Z,99866.14
2022-12-08T13:38:58.083Z,99864.75
2022-12-08T13:41:40.094Z,99863.67
2022-12-08T13:45:11.305Z,99871.61
2022-12-08T13:56:59.645Z,99876.58
2022-12-08T13:58:40.374Z,99868.56
2022-12-08T14:01:21.709Z,99863.00
2022-12-08T14:06:50.333Z,99857.59
2022-12-08T14:09:22.355Z,99863.33
2022-12-08T14:12:03.024Z,99857.61
2022-12-08T14:15:02.008Z,99856.40
2022-12-08T14:17:27.289Z,99852.63
2022-12-08T14:19:57.094Z,99851.95
2022-12-08T14:22:24.727Z,99850.52
2022-12-08T14:24:54.187Z,99854.14
2022-12-08T14:27:24.389Z,99859.98
2022-12-08T14:29:55.496Z,99858.59
2022-12-08T14:32:40.004Z,99862.74
2022-12-08T14:35:07.806Z,99858.20
2022-12-08T14:37:41.144Z,99860.92
2022-12-08T14:40:12.045Z,99864.17
2022-12-08T14:42:46.360Z,99862.45
2022-12-08T14:45:17.051Z,99865.38
2022-12-08T14:47:44.834Z,99871.75
2022-12-08T14:50:41.714Z,99869.67
2022-12-08T14:53:15.614Z,99869.50
2022-12-08T14:55:46.003Z,99870.04
2022-12-08T14:58:19.996Z,99864.85
2022-12-08T15:00:52.061Z,99864.70
2022-12-08T15:03:22.029Z,99864.14
2022-12-08T15:06:00.391Z,99865.29
2022-12-08T15:08:28.173Z,99864.16
2022-12-08T15:11:23.483Z,99855.27
2022-12-08T15:13:52.474Z,99851.11
2022-12-08T15:16:43.785Z,99844.55
2022-12-08T15:19:23.310Z,99849.57
2022-12-08T15:21:51.237Z,99855.09
2022-12-08T15:24:21.545Z,99859.41
2022-12-08T15:26:50.393Z,99854.90
2022-12-08T15:29:26.680Z,99854.20
2022-12-08T15:31:59.930Z,99855.39
2022-12-08T15:34:27.745Z,99844.96
2022-12-08T15:36:55.429Z,99843.86
2022-12-08T15:39:33.502Z,99839.14
2022-12-08T15:42:02.468Z,99833.23
2022-12-08T15:44:30.075Z,99831.84
2022-12-08T15:46:58.626Z,99840.88
2022-12-08T15:49:26.440Z,99833.42
2022-12-08T15:52:02.017Z,99831.71
2022-12-08T15:54:35.720Z,99821.54
2022-12-08T15:57:19.261Z,99828.98
2022-12-08T15:59:51.028Z,99837.64
2022-12-08T16:02:22.518Z,99825.52
2022-12-08T16:07:38.666Z,99839.06
2022-12-08T16:10:08.544Z,99849.54
2022-12-08T16:13:13.908Z,99851.23
2022-12-08T16:18:21.855Z,99847.60
2022-12-08T16:23:45.465Z,99839.58
2022-12-08T16:29:18.543Z,99812.83
2022-12-08T16:31:47.041Z,99811.04
2022-12-08T16:34:14.969Z,99809.28
2022-12-08T16:36:42.556Z,99806.30
2022-12-08T16:39:13.152Z,99790.15
2022-12-08T16:41:40.817Z,99794.98
2022-12-08T16:44:08.445Z,99799.85
2022-12-08T16:46:36.081Z,99803.02
2022-12-08T16:49:07.590Z,99804.45
2022-12-08T16:51:35.241Z,99802.60
2022-12-08T16:54:02.885Z,99807.47
2022-12-08T16:56:33.039Z,99806.95
2022-12-08T16:59:01.949Z,99811.11
2022-12-08T17:01:29.847Z,99812.50
2022-12-08T17:06:45.483Z,99827.73
2022-12-08T17:09:13.140Z,99832.92
2022-12-08T17:11:43.251Z,99837.93
2022-12-08T17:14:16.384Z,99843.48
2022-12-08T17:16:45.593Z,99843.67
2022-12-08T17:19:14.357Z,99848.70
2022-12-08T17:21:42.665Z,99853.77
2022-12-08T17:24:10.596Z,99853.39
2022-12-08T17:26:38.524Z,99851.70
2022-12-08T17:29:06.175Z,99846.26
2022-12-08T17:31:34.003Z,99835.38
2022-12-08T17:34:03.216Z,99820.88
2022-12-08T17:36:31.567Z,99819.17
2022-12-08T17:39:00.119Z,99822.46
2022-12-08T17:41:28.701Z,99818.32
2022-12-08T17:43:56.793Z,99814.69
2022-12-08T17:46:24.567Z,99808.80
2022-12-08T17:48:52.246Z,99802.41
2022-12-08T17:51:19.863Z,99809.16
2022-12-08T17:53:47.498Z,99815.05
2022-12-08T17:56:19.038Z,99818.55
2022-12-08T17:58:52.890Z,99815.98
2022-12-08T18:01:23.888Z,99810.80
2022-12-08T18:03:51.740Z,99799.92
2022-12-08T18:06:20.000Z,99804.98
2022-12-08T18:08:47.766Z,99806.98
2022-12-08T18:11:19.848Z,99810.14
2022-12-08T18:13:49.491Z,99812.94
2022-12-08T18:16:18.738Z,99813.81
2022-12-08T18:18:47.116Z,99813.84
2022-12-08T18:21:22.797Z,99813.81
2022-12-08T18:23:51.505Z,99808.42
2022-12-08T18:26:19.972Z,99806.50
2022-12-08T18:28:47.764Z,99798.84
2022-12-08T18:31:19.079Z,99794.64
2022-12-08T18:33:47.858Z,99797.41
2022-12-08T18:36:25.309Z,99801.70
2022-12-08T18:38:53.357Z,99804.77
2022-12-08T18:41:23.539Z,99806.52
2022-12-08T18:43:51.840Z,99815.84
2022-12-08T18:46:19.802Z,99819.33
2022-12-08T18:48:49.569Z,99822.11
2022-12-08T18:51:22.693Z,99820.70
2022-12-08T18:53:51.428Z,99819.50
2022-12-08T18:56:28.298Z,99816.69
2022-12-08T18:59:02.849Z,99816.83
2022-12-08T19:01:32.976Z,99811.73
2022-12-08T19:06:51.273Z,99797.14
2022-12-08T19:09:19.316Z,99804.04
2022-12-08T19:11:46.943Z,99801.61
2022-12-08T19:14:14.532Z,99802.98
2022-12-08T19:16:42.228Z,99805.71
2022-12-08T19:19:09.822Z,99810.71
2022-12-08T19:21:41.395Z,99808.78
2022-12-08T19:24:12.628Z,99813.54
2022-12-08T19:26:40.425Z,99814.02
2022-12-08T19:29:08.278Z,99817.56
2022-12-08T19:31:36.047Z,99818.91
2022-12-08T19:34:03.698Z,99820.14
2022-12-08T19:36:31.335Z,99820.33
2022-12-08T19:38:58.891Z,99820.88
2022-12-08T19:41:26.939Z,99818.98
2022-12-08T19:43:54.517Z,99813.86
2022-12-08T19:46:22.212Z,99811.83
2022-12-08T19:48:49.899Z,99814.27
2022-12-08T19:51:17.490Z,99813.02
2022-12-08T19:53:47.747Z,99808.45
2022-12-08T19:56:15.720Z,99812.56
2022-12-08T19:58:43.406Z,99814.42
2022-12-08T20:01:11.091Z,99809.71
2022-12-08T20:03:38.905Z,99809.38
2022-12-08T20:06:06.539Z,99813.52
2022-12-08T20:08:34.213Z,99808.30
2022-12-08T20:11:01.859Z,99802.42
2022-12-08T20:13:29.446Z,99800.75
2022-12-08T20:15:57.587Z,99803.91
2022-12-08T20:18:25.264Z,99808.48
2022-12-08T20:20:52.872Z,99800.38
2022-12-08T20:23:21.654Z,99793.16
2022-12-08T20:25:49.286Z,99791.73
2022-12-08T20:28:16.998Z,99789.80
2022-12-08T20:30:45.729Z,99782.31
2022-12-08T20:33:14.013Z,99782.63
2022-12-08T20:35:42.392Z,99778.10
2022-12-08T20:38:11.073Z,99774.05
2022-12-08T20:40:44.356Z,99779.39
2022-12-08T20:43:12.015Z,99784.89
2022-12-08T20:45:39.604Z,99789.85
2022-12-08T20:48:07.346Z,99786.70
2022-12-08T20:50:35.028Z,99793.09
2022-12-08T20:53:02.805Z,99796.94
2022-12-08T20:55:30.611Z,99801.02
2022-12-08T20:57:58.245Z,99803.48
2022-12-08T21:00:26.016Z,99806.11
2022-12-08T21:02:56.828Z,99812.02
2022-12-08T21:05:25.055Z,99817.88
2022-12-08T21:07:53.119Z,99812.12
2022-12-08T21:10:20.775Z,99809.00
2022-12-08T21:12:48.544Z,99813.45
2022-12-08T21:15:16.428Z,99818.27
2022-12-08T21:17:44.142Z,99815.66
2022-12-08T21:20:12.158Z,99816.65
2022-12-08T21:22:40.243Z,99823.17
2022-12-08T21:25:08.867Z,99825.42
2022-12-08T21:27:37.803Z,99819.70
2022-12-08T21:30:07.999Z,99815.20
2022-12-08T21:32:37.934Z,99811.79
2022-12-08T21:35:07.066Z,99809.77
2022-12-08T21:37:35.223Z,99810.16
2022-12-08T21:40:03.200Z,99800.88
2022-12-08T21:42:34.312Z,99789.81
2022-12-08T21:45:02.466Z,99778.89
2022-12-08T21:47:30.239Z,99777.48
2022-12-08T21:49:58.119Z,99778.30
2022-12-08T21:52:26.341Z,99770.67
2022-12-08T21:54:53.949Z,99775.64
2022-12-08T21:57:21.877Z,99775.40
2022-12-08T21:59:49.727Z,99776.38
2022-12-08T22:02:22.233Z,99781.66
2022-12-08T22:04:50.933Z,99779.89
2022-12-08T22:07:20.650Z,99785.59
2022-12-08T22:09:48.444Z,99791.11
2022-12-08T22:12:16.228Z,99789.59
2022-12-08T22:14:44.092Z,99790.98
2022-12-08T22:17:11.849Z,99789.67
2022-12-08T22:19:39.484Z,99788.00
2022-12-08T22:22:07.176Z,99785.06
2022-12-08T22:24:34.871Z,99783.98
2022-12-08T22:27:02.726Z,99782.34
2022-12-08T22:29:30.414Z,99790.08
2022-12-08T22:31:58.229Z,99795.04
2022-12-08T22:34:25.893Z,99795.19
2022-12-08T22:36:53.472Z,99799.09
2022-12-08T22:39:21.133Z,99801.66
2022-12-08T22:41:49.101Z,99801.10
2022-12-08T22:44:16.929Z,99795.91
2022-12-08T22:46:44.985Z,99799.05
2022-12-08T22:49:12.715Z,99798.23
2022-12-08T22:51:40.383Z,99799.16
2022-12-08T22:54:10.644Z,99805.10
2022-12-08T22:56:38.533Z,99800.81
2022-12-08T22:59:06.290Z,99797.17
2022-12-08T23:01:34.619Z,99794.63
2022-12-08T23:04:20.208Z,99799.53
2022-12-08T23:06:48.246Z,99800.23
2022-12-08T23:09:16.020Z,99798.84
2022-12-08T23:11:43.718Z,99797.77
2022-12-08T23:14:11.300Z,99795.66
2022-12-08T23:16:39.055Z,99796.48
2022-12-08T23:19:06.773Z,99798.14
2022-12-08T23:21:34.391Z,99798.63
2022-12-08T23:24:02.681Z,99799.16
2022-12-08T23:26:32.091Z,99795.19
2022-12-08T23:29:00.276Z,99791.92
2022-12-08T23:31:28.165Z,99795.02
2022-12-08T23:33:56.056Z,99794.91
2022-12-08T23:36:24.462Z,99794.10
2022-12-08T23:38:53.297Z,99794.17
2022-12-08T23:41:21.407Z,99796.10
2022-12-08T23:43:51.306Z,99795.27
2022-12-08T23:46:21.124Z,99790.11
2022-12-08T23:48:50.364Z,99789.92
2022-12-08T23:51:18.703Z,99783.85
2022-12-08T23:53:46.421Z,99776.40
2022-12-08T23:56:16.883Z,99774.95
2022-12-08T23:58:45.984Z,99779.77
